首页
METAR-TAF:

METAR-TAF

机场 :

Lynchburg Regional Airport (Preston Glenn Field)

林奇堡, 弗吉尼亚州, 美国

纬度: 37-19-15N, 经度: 079-12-24W, 海拔: 285米

当前天气观测

该预报发布于9分钟前的10:54 UTC
风速4节,风向东转东北
温度 19°C
湿度 88%
气压 1022 hPa
能見度: 16.1公里
阴天层高于4500英尺

METAR: KLYH 261054Z 06004KT 10SM OVC045 19/17 A3019 RMK AO2 SLP215 T01890172 $

时间: 07:03 (11:03 UTC)

预报

该预报发布于32分钟前的10:31 UTC
预报有效从26日的 11点(UTC)到 27日的 06点(UTC)
风速节,风向
能見度: 10公里
散云层高于1100英尺
阴天层高于4500英尺
短暂存在
从 26日的 11点(UTC)到 26日的 13点(UTC)
多云层高于1100英尺
从 26日的 1330点(UTC)
风速4节,风向东转东北
能見度: 10公里
多云层高于1100英尺
从 26日的 1600点(UTC)
风速6节,风向
能見度: 10公里
多云层高于3500英尺
从 27日的 0400点(UTC)
风速4节,风向
能見度: 10公里
阴天层高于1400英尺

TAF: KLYH 261031Z 2611/2706 00000KT P6SM SCT011 OVC045 TEMPO 2611/2613 BKN011 FM261330 07004KT P6SM BKN011 FM261600 08006KT P6SM BKN035 FM270400 10004KT P6SM OVC014

超过4000个机场的气象观测和天气预报(METAR&TAF报告)。

可查询的气象台以黄色和红色小点在地图上表示。

将鼠标移到小点上方,可查看气象台名称。

然后点击查看天气观测和预报。

如需切换地图:点击带黑十字的绿色按钮放大地图;点击带横线的绿色按钮缩小地图;或者点击绿色箭头查看邻近地区的地图。


METAR-TAF: